sensor_id;sensor_type;location;lat;lon;timestamp;pressure;altitude;pressure_sealevel;temperature;humidity
10474;BME280;5284;50.446;7.904;2023-03-14T00:02:00;96342.03;;;10.74;100.00
10474;BME280;5284;50.446;7.904;2023-03-14T00:07:03;96381.03;;;10.75;100.00
10474;BME280;5284;50.446;7.904;2023-03-14T00:12:06;96365.19;;;10.73;100.00
10474;BME280;5284;50.446;7.904;2023-03-14T00:17:11;96370.16;;;10.76;100.00
10474;BME280;5284;50.446;7.904;2023-03-14T00:22:15;96357.56;;;10.70;100.00
10474;BME280;5284;50.446;7.904;2023-03-14T00:27:18;96369.41;;;10.68;100.00
10474;BME280;5284;50.446;7.904;2023-03-14T00:32:24;96358.09;;;10.66;100.00
10474;BME280;5284;50.446;7.904;2023-03-14T00:37:27;96345.78;;;10.65;100.00
10474;BME280;5284;50.446;7.904;2023-03-14T00:42:30;96335.34;;;10.63;100.00
10474;BME280;5284;50.446;7.904;2023-03-14T00:47:34;96317.22;;;10.59;100.00
10474;BME280;5284;50.446;7.904;2023-03-14T00:52:37;96312.44;;;10.55;100.00
10474;BME280;5284;50.446;7.904;2023-03-14T00:57:40;96311.91;;;10.45;100.00
10474;BME280;5284;50.446;7.904;2023-03-14T01:02:44;96322.53;;;10.30;100.00
10474;BME280;5284;50.446;7.904;2023-03-14T01:07:51;96292.97;;;10.11;100.00
10474;BME280;5284;50.446;7.904;2023-03-14T01:12:54;96299.56;;;10.15;100.00
10474;BME280;5284;50.446;7.904;2023-03-14T01:17:58;96295.81;;;10.09;100.00
10474;BME280;5284;50.446;7.904;2023-03-14T01:23:01;96295.81;;;10.09;100.00
10474;BME280;5284;50.446;7.904;2023-03-14T01:28:03;96291.69;;;10.07;100.00
10474;BME280;5284;50.446;7.904;2023-03-14T01:33:08;96274.69;;;10.08;100.00
10474;BME280;5284;50.446;7.904;2023-03-14T01:38:11;96265.06;;;10.07;100.00
10474;BME280;5284;50.446;7.904;2023-03-14T01:43:16;96265.25;;;10.05;100.00
10474;BME280;5284;50.446;7.904;2023-03-14T01:48:20;96266.53;;;10.09;100.00
10474;BME280;5284;50.446;7.904;2023-03-14T01:53:23;96273.69;;;10.09;100.00
10474;BME280;5284;50.446;7.904;2023-03-14T01:58:27;96270.00;;;10.10;100.00
10474;BME280;5284;50.446;7.904;2023-03-14T02:03:41;96278.19;;;10.08;100.00
10474;BME280;5284;50.446;7.904;2023-03-14T02:08:47;96269.00;;;10.11;100.00
10474;BME280;5284;50.446;7.904;2023-03-14T02:13:56;96254.66;;;10.12;100.00
10474;BME280;5284;50.446;7.904;2023-03-14T02:19:28;96246.50;;;10.13;100.00
10474;BME280;5284;50.446;7.904;2023-03-14T02:25:02;96251.09;;;10.19;100.00
10474;BME280;5284;50.446;7.904;2023-03-14T02:30:12;96239.16;;;10.15;100.00
10474;BME280;5284;50.446;7.904;2023-03-14T02:35:20;96226.28;;;10.19;100.00
10474;BME280;5284;50.446;7.904;2023-03-14T02:40:24;96237.94;;;10.18;100.00
10474;BME280;5284;50.446;7.904;2023-03-14T02:45:43;96206.38;;;10.15;100.00
10474;BME280;5284;50.446;7.904;2023-03-14T02:50:52;96208.31;;;10.06;100.00
10474;BME280;5284;50.446;7.904;2023-03-14T02:55:56;96198.22;;;10.02;100.00
10474;BME280;5284;50.446;7.904;2023-03-14T03:01:02;96203.66;;;10.00;100.00
10474;BME280;5284;50.446;7.904;2023-03-14T03:06:06;96204.41;;;9.94;100.00
10474;BME280;5284;50.446;7.904;2023-03-14T03:11:09;96215.44;;;9.91;100.00
10474;BME280;5284;50.446;7.904;2023-03-14T03:16:14;96212.50;;;9.86;100.00
10474;BME280;5284;50.446;7.904;2023-03-14T03:21:17;96210.75;;;9.79;100.00
10474;BME280;5284;50.446;7.904;2023-03-14T03:26:20;96207.44;;;9.77;100.00
10474;BME280;5284;50.446;7.904;2023-03-14T03:31:24;96186.06;;;9.70;100.00
10474;BME280;5284;50.446;7.904;2023-03-14T03:36:27;96189.28;;;9.66;100.00
10474;BME280;5284;50.446;7.904;2023-03-14T03:41:33;96189.53;;;9.71;100.00
10474;BME280;5284;50.446;7.904;2023-03-14T03:46:37;96176.88;;;9.73;100.00
10474;BME280;5284;50.446;7.904;2023-03-14T03:51:42;96178.25;;;9.69;100.00
10474;BME280;5284;50.446;7.904;2023-03-14T03:56:44;96178.53;;;9.74;100.00
10474;BME280;5284;50.446;7.904;2023-03-14T04:01:49;96179.75;;;9.71;100.00
10474;BME280;5284;50.446;7.904;2023-03-14T04:06:52;96158.34;;;9.79;100.00
10474;BME280;5284;50.446;7.904;2023-03-14T04:11:55;96157.13;;;9.82;100.00
10474;BME280;5284;50.446;7.904;2023-03-14T04:17:12;96165.13;;;9.82;100.00
10474;BME280;5284;50.446;7.904;2023-03-14T04:22:15;96156.06;;;9.76;100.00
10474;BME280;5284;50.446;7.904;2023-03-14T04:27:24;96145.41;;;9.76;100.00
10474;BME280;5284;50.446;7.904;2023-03-14T04:32:29;96137.22;;;9.78;100.00
10474;BME280;5284;50.446;7.904;2023-03-14T04:37:33;96141.91;;;9.76;100.00
10474;BME280;5284;50.446;7.904;2023-03-14T04:42:37;96145.22;;;9.78;100.00
10474;BME280;5284;50.446;7.904;2023-03-14T04:47:41;96148.88;;;9.77;100.00
10474;BME280;5284;50.446;7.904;2023-03-14T04:52:48;96133.81;;;9.84;100.00
10474;BME280;5284;50.446;7.904;2023-03-14T04:57:52;96144.31;;;9.85;100.00
10474;BME280;5284;50.446;7.904;2023-03-14T05:02:57;96151.00;;;9.81;100.00
10474;BME280;5284;50.446;7.904;2023-03-14T05:08:23;96129.97;;;9.86;100.00
10474;BME280;5284;50.446;7.904;2023-03-14T05:13:38;96141.16;;;9.82;100.00
10474;BME280;5284;50.446;7.904;2023-03-14T05:18:51;96132.09;;;9.76;100.00
10474;BME280;5284;50.446;7.904;2023-03-14T05:24:17;96121.00;;;9.73;100.00
10474;BME280;5284;50.446;7.904;2023-03-14T05:29:32;96136.31;;;9.71;100.00
10474;BME280;5284;50.446;7.904;2023-03-14T05:34:59;96111.91;;;9.67;100.00
10474;BME280;5284;50.446;7.904;2023-03-14T05:40:16;96116.31;;;9.60;100.00
10474;BME280;5284;50.446;7.904;2023-03-14T05:45:32;96106.13;;;9.49;100.00
10474;BME280;5284;50.446;7.904;2023-03-14T05:51:05;96101.94;;;9.40;100.00
10474;BME280;5284;50.446;7.904;2023-03-14T05:56:20;96109.16;;;9.32;100.00
10474;BME280;5284;50.446;7.904;2023-03-14T06:01:41;96090.28;;;9.27;100.00
10474;BME280;5284;50.446;7.904;2023-03-14T06:06:51;96091.28;;;9.26;100.00
10474;BME280;5284;50.446;7.904;2023-03-14T06:11:55;96100.63;;;9.22;100.00
10474;BME280;5284;50.446;7.904;2023-03-14T06:16:58;96081.19;;;9.21;100.00
10474;BME280;5284;50.446;7.904;2023-03-14T06:22:07;96082.03;;;9.22;100.00
10474;BME280;5284;50.446;7.904;2023-03-14T06:27:12;96081.81;;;9.23;100.00
10474;BME280;5284;50.446;7.904;2023-03-14T06:32:15;96073.56;;;9.33;100.00
10474;BME280;5284;50.446;7.904;2023-03-14T06:37:19;96060.16;;;9.55;100.00
10474;BME280;5284;50.446;7.904;2023-03-14T06:42:23;96060.03;;;9.78;100.00
10474;BME280;5284;50.446;7.904;2023-03-14T06:47:27;96072.16;;;9.80;100.00
10474;BME280;5284;50.446;7.904;2023-03-14T06:52:33;96061.00;;;9.70;100.00
10474;BME280;5284;50.446;7.904;2023-03-14T06:57:37;96060.31;;;9.83;100.00
10474;BME280;5284;50.446;7.904;2023-03-14T07:02:40;96062.25;;;9.89;100.00
10474;BME280;5284;50.446;7.904;2023-03-14T07:08:01;96059.41;;;9.76;100.00
10474;BME280;5284;50.446;7.904;2023-03-14T07:13:04;96067.38;;;9.76;100.00
10474;BME280;5284;50.446;7.904;2023-03-14T07:18:11;96066.94;;;9.87;100.00
10474;BME280;5284;50.446;7.904;2023-03-14T07:23:16;96074.72;;;10.03;100.00
10474;BME280;5284;50.446;7.904;2023-03-14T07:28:23;96089.81;;;10.17;100.00
10474;BME280;5284;50.446;7.904;2023-03-14T07:33:32;96071.19;;;10.17;100.00
10474;BME280;5284;50.446;7.904;2023-03-14T07:38:38;96074.94;;;10.22;100.00
10474;BME280;5284;50.446;7.904;2023-03-14T07:44:00;96068.34;;;10.18;100.00
10474;BME280;5284;50.446;7.904;2023-03-14T07:49:03;96073.41;;;10.34;100.00
10474;BME280;5284;50.446;7.904;2023-03-14T07:54:07;96085.50;;;10.51;100.00
10474;BME280;5284;50.446;7.904;2023-03-14T07:59:10;96086.06;;;10.47;100.00
10474;BME280;5284;50.446;7.904;2023-03-14T08:04:14;96082.28;;;10.56;100.00
10474;BME280;5284;50.446;7.904;2023-03-14T08:09:18;96093.19;;;10.61;100.00
10474;BME280;5284;50.446;7.904;2023-03-14T08:14:21;96082.00;;;10.71;100.00
10474;BME280;5284;50.446;7.904;2023-03-14T08:19:27;96088.28;;;10.85;100.00
10474;BME280;5284;50.446;7.904;2023-03-14T08:24:32;96071.88;;;10.88;100.00
10474;BME280;5284;50.446;7.904;2023-03-14T08:29:35;96081.78;;;10.94;100.00
10474;BME280;5284;50.446;7.904;2023-03-14T08:34:38;96097.22;;;10.98;100.00
10474;BME280;5284;50.446;7.904;2023-03-14T08:39:43;96098.56;;;11.15;100.00
10474;BME280;5284;50.446;7.904;2023-03-14T08:44:46;96088.59;;;11.03;100.00
10474;BME280;5284;50.446;7.904;2023-03-14T08:49:49;96101.63;;;11.12;100.00
10474;BME280;5284;50.446;7.904;2023-03-14T08:54:54;96101.81;;;11.11;100.00
10474;BME280;5284;50.446;7.904;2023-03-14T08:59:59;96108.75;;;11.33;100.00
10474;BME280;5284;50.446;7.904;2023-03-14T09:05:01;96108.44;;;11.21;100.00
10474;BME280;5284;50.446;7.904;2023-03-14T09:10:07;96105.75;;;11.15;100.00
10474;BME280;5284;50.446;7.904;2023-03-14T09:15:11;96101.81;;;11.11;100.00
10474;BME280;5284;50.446;7.904;2023-03-14T09:20:16;96107.34;;;11.09;100.00
10474;BME280;5284;50.446;7.904;2023-03-14T09:25:20;96107.94;;;11.32;100.00
10474;BME280;5284;50.446;7.904;2023-03-14T09:30:23;96121.13;;;11.40;100.00
10474;BME280;5284;50.446;7.904;2023-03-14T09:35:26;96114.19;;;11.46;100.00
10474;BME280;5284;50.446;7.904;2023-03-14T09:40:34;96130.03;;;11.75;100.00
10474;BME280;5284;50.446;7.904;2023-03-14T09:45:39;96121.50;;;11.58;100.00
10474;BME280;5284;50.446;7.904;2023-03-14T09:50:45;96115.25;;;11.79;100.00
10474;BME280;5284;50.446;7.904;2023-03-14T09:55:50;96126.06;;;11.64;100.00
10474;BME280;5284;50.446;7.904;2023-03-14T10:00:56;96131.88;;;11.53;100.00
10474;BME280;5284;50.446;7.904;2023-03-14T10:06:01;96139.13;;;11.32;100.00
10474;BME280;5284;50.446;7.904;2023-03-14T10:11:12;96132.09;;;11.24;100.00
10474;BME280;5284;50.446;7.904;2023-03-14T10:16:16;96137.91;;;11.34;100.00
10474;BME280;5284;50.446;7.904;2023-03-14T10:21:21;96149.66;;;11.40;100.00
10474;BME280;5284;50.446;7.904;2023-03-14T10:26:34;96149.78;;;11.32;100.00
10474;BME280;5284;50.446;7.904;2023-03-14T10:31:51;96150.78;;;11.24;100.00
10474;BME280;5284;50.446;7.904;2023-03-14T10:36:57;96159.59;;;11.25;100.00
10474;BME280;5284;50.446;7.904;2023-03-14T10:42:05;96161.25;;;11.05;100.00
10474;BME280;5284;50.446;7.904;2023-03-14T10:47:17;96169.97;;;10.92;100.00
10474;BME280;5284;50.446;7.904;2023-03-14T10:52:23;96183.88;;;10.53;100.00
10474;BME280;5284;50.446;7.904;2023-03-14T10:57:39;96190.56;;;10.28;100.00
10474;BME280;5284;50.446;7.904;2023-03-14T11:02:59;96236.63;;;9.99;100.00
10474;BME280;5284;50.446;7.904;2023-03-14T11:08:11;96277.72;;;9.08;100.00
10474;BME280;5284;50.446;7.904;2023-03-14T11:13:24;96310.94;;;8.44;100.00
10474;BME280;5284;50.446;7.904;2023-03-14T11:18:46;96324.19;;;7.73;100.00
10474;BME280;5284;50.446;7.904;2023-03-14T11:24:01;96350.72;;;7.42;100.00
10474;BME280;5284;50.446;7.904;2023-03-14T11:29:20;96377.41;;;7.40;100.00
10474;BME280;5284;50.446;7.904;2023-03-14T11:34:27;96400.09;;;7.27;100.00
10474;BME280;5284;50.446;7.904;2023-03-14T11:39:39;96408.97;;;7.10;100.00
10474;BME280;5284;50.446;7.904;2023-03-14T11:44:46;96427.50;;;7.02;100.00
10474;BME280;5284;50.446;7.904;2023-03-14T11:49:53;96432.25;;;6.90;100.00
10474;BME280;5284;50.446;7.904;2023-03-14T11:55:05;96458.28;;;6.95;100.00
10474;BME280;5284;50.446;7.904;2023-03-14T12:00:16;96479.03;;;7.07;100.00
10474;BME280;5284;50.446;7.904;2023-03-14T12:05:37;96479.69;;;7.09;100.00
10474;BME280;5284;50.446;7.904;2023-03-14T12:10:46;96493.00;;;7.25;100.00
10474;BME280;5284;50.446;7.904;2023-03-14T12:15:56;96508.25;;;7.23;100.00
10474;BME280;5284;50.446;7.904;2023-03-14T12:21:02;96520.44;;;7.08;100.00
10474;BME280;5284;50.446;7.904;2023-03-14T12:26:13;96535.06;;;7.20;100.00
10474;BME280;5284;50.446;7.904;2023-03-14T12:31:42;96544.59;;;7.47;100.00
10474;BME280;5284;50.446;7.904;2023-03-14T12:36:56;96559.94;;;7.27;100.00
10474;BME280;5284;50.446;7.904;2023-03-14T12:42:03;96556.16;;;7.30;100.00
10474;BME280;5284;50.446;7.904;2023-03-14T12:52:57;96576.44;;;7.13;100.00
10474;BME280;5284;50.446;7.904;2023-03-14T12:58:13;96600.38;;;7.29;100.00
10474;BME280;5284;50.446;7.904;2023-03-14T13:03:20;96598.03;;;8.01;100.00
10474;BME280;5284;50.446;7.904;2023-03-14T13:08:36;96625.19;;;8.52;100.00
10474;BME280;5284;50.446;7.904;2023-03-14T13:13:46;96645.16;;;8.15;100.00
10474;BME280;5284;50.446;7.904;2023-03-14T13:18:51;96699.09;;;6.63;100.00
10474;BME280;5284;50.446;7.904;2023-03-14T13:24:06;96706.13;;;6.10;100.00
10474;BME280;5284;50.446;7.904;2023-03-14T13:29:16;96729.56;;;6.05;100.00
10474;BME280;5284;50.446;7.904;2023-03-14T13:34:19;96739.88;;;6.25;100.00
10474;BME280;5284;50.446;7.904;2023-03-14T13:39:26;96761.22;;;6.24;100.00
10474;BME280;5284;50.446;7.904;2023-03-14T13:44:34;96775.00;;;6.01;100.00
10474;BME280;5284;50.446;7.904;2023-03-14T13:49:39;96797.97;;;6.00;100.00
10474;BME280;5284;50.446;7.904;2023-03-14T13:54:44;96819.31;;;5.89;100.00
10474;BME280;5284;50.446;7.904;2023-03-14T13:59:58;96838.09;;;5.77;100.00
10474;BME280;5284;50.446;7.904;2023-03-14T14:05:05;96864.97;;;5.91;100.00
10474;BME280;5284;50.446;7.904;2023-03-14T14:10:11;96870.13;;;5.83;100.00
10474;BME280;5284;50.446;7.904;2023-03-14T14:15:17;96885.44;;;5.61;100.00
10474;BME280;5284;50.446;7.904;2023-03-14T14:25:37;96915.34;;;5.42;100.00
10474;BME280;5284;50.446;7.904;2023-03-14T14:30:42;96938.44;;;5.31;100.00
10474;BME280;5284;50.446;7.904;2023-03-14T14:35:52;96958.03;;;5.19;100.00
10474;BME280;5284;50.446;7.904;2023-03-14T14:41:00;96978.63;;;5.15;100.00
10474;BME280;5284;50.446;7.904;2023-03-14T14:46:06;96990.59;;;5.19;100.00
10474;BME280;5284;50.446;7.904;2023-03-14T14:51:09;97010.41;;;5.04;100.00
10474;BME280;5284;50.446;7.904;2023-03-14T14:56:18;97022.91;;;5.02;100.00
10474;BME280;5284;50.446;7.904;2023-03-14T15:01:25;97032.66;;;5.02;100.00
10474;BME280;5284;50.446;7.904;2023-03-14T15:06:34;97049.03;;;4.96;100.00
10474;BME280;5284;50.446;7.904;2023-03-14T15:11:38;97049.88;;;4.96;100.00
10474;BME280;5284;50.446;7.904;2023-03-14T15:16:41;97057.94;;;4.95;100.00
10474;BME280;5284;50.446;7.904;2023-03-14T15:21:45;97063.34;;;4.93;100.00
10474;BME280;5284;50.446;7.904;2023-03-14T15:26:50;97077.06;;;4.87;100.00
10474;BME280;5284;50.446;7.904;2023-03-14T15:31:53;97090.31;;;4.97;100.00
10474;BME280;5284;50.446;7.904;2023-03-14T15:36:56;97098.00;;;5.00;100.00
10474;BME280;5284;50.446;7.904;2023-03-14T15:42:02;97125.69;;;4.85;100.00
10474;BME280;5284;50.446;7.904;2023-03-14T15:47:06;97141.16;;;4.69;100.00
10474;BME280;5284;50.446;7.904;2023-03-14T15:52:09;97160.09;;;4.53;100.00
10474;BME280;5284;50.446;7.904;2023-03-14T15:57:15;97163.25;;;4.47;100.00
10474;BME280;5284;50.446;7.904;2023-03-14T16:02:18;97176.44;;;4.47;100.00
10474;BME280;5284;50.446;7.904;2023-03-14T16:07:24;97182.69;;;4.47;100.00
10474;BME280;5284;50.446;7.904;2023-03-14T16:12:28;97186.75;;;4.50;100.00
10474;BME280;5284;50.446;7.904;2023-03-14T16:17:32;97196.13;;;4.44;100.00
10474;BME280;5284;50.446;7.904;2023-03-14T16:22:35;97209.69;;;4.39;100.00
10474;BME280;5284;50.446;7.904;2023-03-14T16:27:40;97229.13;;;4.38;100.00
10474;BME280;5284;50.446;7.904;2023-03-14T16:32:45;97254.34;;;4.31;100.00
10474;BME280;5284;50.446;7.904;2023-03-14T16:37:50;97271.88;;;4.10;100.00
10474;BME280;5284;50.446;7.904;2023-03-14T16:42:54;97275.88;;;3.83;100.00
10474;BME280;5284;50.446;7.904;2023-03-14T16:48:16;97287.25;;;3.72;100.00
10474;BME280;5284;50.446;7.904;2023-03-14T16:53:19;97298.13;;;3.57;100.00
10474;BME280;5284;50.446;7.904;2023-03-14T16:58:24;97321.84;;;3.46;100.00
10474;BME280;5284;50.446;7.904;2023-03-14T17:03:28;97333.19;;;3.35;100.00
10474;BME280;5284;50.446;7.904;2023-03-14T17:08:31;97339.66;;;3.31;100.00
10474;BME280;5284;50.446;7.904;2023-03-14T17:13:36;97332.81;;;3.29;100.00
10474;BME280;5284;50.446;7.904;2023-03-14T17:18:40;97342.06;;;3.34;100.00
10474;BME280;5284;50.446;7.904;2023-03-14T17:23:43;97358.69;;;3.35;100.00
10474;BME280;5284;50.446;7.904;2023-03-14T17:28:47;97371.91;;;3.46;100.00
10474;BME280;5284;50.446;7.904;2023-03-14T17:33:50;97385.06;;;3.46;100.00
10474;BME280;5284;50.446;7.904;2023-03-14T17:38:54;97400.03;;;3.45;100.00
10474;BME280;5284;50.446;7.904;2023-03-14T17:44:00;97408.66;;;3.47;100.00
10474;BME280;5284;50.446;7.904;2023-03-14T17:49:03;97424.22;;;3.50;100.00
10474;BME280;5284;50.446;7.904;2023-03-14T17:54:06;97441.63;;;3.53;100.00
10474;BME280;5284;50.446;7.904;2023-03-14T17:59:10;97457.53;;;3.51;100.00
10474;BME280;5284;50.446;7.904;2023-03-14T18:04:13;97479.34;;;3.53;100.00
10474;BME280;5284;50.446;7.904;2023-03-14T18:09:17;97475.03;;;3.52;100.00
10474;BME280;5284;50.446;7.904;2023-03-14T18:14:22;97485.06;;;3.47;100.00
10474;BME280;5284;50.446;7.904;2023-03-14T18:19:24;97491.44;;;3.45;100.00
10474;BME280;5284;50.446;7.904;2023-03-14T18:24:27;97502.50;;;3.37;100.00
10474;BME280;5284;50.446;7.904;2023-03-14T18:29:32;97509.78;;;3.34;100.00
10474;BME280;5284;50.446;7.904;2023-03-14T18:34:35;97529.19;;;3.33;100.00
10474;BME280;5284;50.446;7.904;2023-03-14T18:39:38;97531.44;;;3.26;100.00
10474;BME280;5284;50.446;7.904;2023-03-14T18:44:43;97540.28;;;3.25;100.00
10474;BME280;5284;50.446;7.904;2023-03-14T18:49:46;97554.28;;;3.26;100.00
10474;BME280;5284;50.446;7.904;2023-03-14T18:54:49;97562.91;;;3.28;100.00
10474;BME280;5284;50.446;7.904;2023-03-14T18:59:54;97568.19;;;3.28;100.00
10474;BME280;5284;50.446;7.904;2023-03-14T19:04:58;97569.88;;;3.29;100.00
10474;BME280;5284;50.446;7.904;2023-03-14T19:10:01;97571.78;;;3.27;100.00
10474;BME280;5284;50.446;7.904;2023-03-14T19:15:08;97584.22;;;3.25;100.00
10474;BME280;5284;50.446;7.904;2023-03-14T19:20:12;97591.16;;;3.26;100.00
10474;BME280;5284;50.446;7.904;2023-03-14T19:25:16;97596.22;;;3.29;100.00
10474;BME280;5284;50.446;7.904;2023-03-14T19:30:20;97613.69;;;3.30;100.00
10474;BME280;5284;50.446;7.904;2023-03-14T19:35:23;97628.69;;;3.29;100.00
10474;BME280;5284;50.446;7.904;2023-03-14T19:40:26;97639.22;;;3.29;100.00
10474;BME280;5284;50.446;7.904;2023-03-14T19:45:30;97640.03;;;3.30;100.00
10474;BME280;5284;50.446;7.904;2023-03-14T19:50:37;97641.72;;;3.31;100.00
10474;BME280;5284;50.446;7.904;2023-03-14T19:55:41;97645.94;;;3.33;100.00
10474;BME280;5284;50.446;7.904;2023-03-14T20:00:49;97665.13;;;3.35;100.00
10474;BME280;5284;50.446;7.904;2023-03-14T20:05:53;97677.44;;;3.35;100.00
10474;BME280;5284;50.446;7.904;2023-03-14T20:10:57;97687.03;;;3.36;100.00
10474;BME280;5284;50.446;7.904;2023-03-14T20:16:04;97697.78;;;3.33;100.00
10474;BME280;5284;50.446;7.904;2023-03-14T20:21:09;97716.13;;;3.34;100.00
10474;BME280;5284;50.446;7.904;2023-03-14T20:26:13;97726.03;;;3.31;100.00
10474;BME280;5284;50.446;7.904;2023-03-14T20:31:18;97733.31;;;3.27;100.00
10474;BME280;5284;50.446;7.904;2023-03-14T20:36:23;97750.91;;;3.27;100.00
10474;BME280;5284;50.446;7.904;2023-03-14T20:41:27;97771.03;;;3.28;100.00
10474;BME280;5284;50.446;7.904;2023-03-14T20:46:32;97775.56;;;3.26;100.00
10474;BME280;5284;50.446;7.904;2023-03-14T20:51:35;97778.31;;;3.24;100.00
10474;BME280;5284;50.446;7.904;2023-03-14T20:56:39;97777.53;;;3.22;100.00
10474;BME280;5284;50.446;7.904;2023-03-14T21:01:43;97788.00;;;3.24;100.00
10474;BME280;5284;50.446;7.904;2023-03-14T21:06:48;97802.09;;;3.23;100.00
10474;BME280;5284;50.446;7.904;2023-03-14T21:11:51;97806.84;;;3.18;100.00
10474;BME280;5284;50.446;7.904;2023-03-14T21:16:56;97814.97;;;3.15;100.00
10474;BME280;5284;50.446;7.904;2023-03-14T21:22:02;97816.94;;;3.11;100.00
10474;BME280;5284;50.446;7.904;2023-03-14T21:27:06;97824.00;;;3.11;100.00
10474;BME280;5284;50.446;7.904;2023-03-14T21:32:10;97826.09;;;3.06;100.00
10474;BME280;5284;50.446;7.904;2023-03-14T21:37:13;97843.97;;;3.01;100.00
10474;BME280;5284;50.446;7.904;2023-03-14T21:42:16;97846.19;;;2.95;100.00
10474;BME280;5284;50.446;7.904;2023-03-14T21:47:21;97851.75;;;2.90;100.00
10474;BME280;5284;50.446;7.904;2023-03-14T21:52:26;97852.38;;;2.81;100.00
10474;BME280;5284;50.446;7.904;2023-03-14T21:57:29;97863.38;;;2.74;100.00
10474;BME280;5284;50.446;7.904;2023-03-14T22:02:35;97881.34;;;2.67;100.00
10474;BME280;5284;50.446;7.904;2023-03-14T22:07:38;97891.44;;;2.61;100.00
10474;BME280;5284;50.446;7.904;2023-03-14T22:12:42;97898.13;;;2.52;100.00
10474;BME280;5284;50.446;7.904;2023-03-14T22:17:47;97908.31;;;2.44;100.00
10474;BME280;5284;50.446;7.904;2023-03-14T22:22:52;97908.97;;;2.34;100.00
10474;BME280;5284;50.446;7.904;2023-03-14T22:27:55;97926.06;;;2.27;100.00
10474;BME280;5284;50.446;7.904;2023-03-14T22:32:59;97933.41;;;2.22;100.00
10474;BME280;5284;50.446;7.904;2023-03-14T22:38:02;97938.56;;;2.09;100.00
10474;BME280;5284;50.446;7.904;2023-03-14T22:43:05;97952.25;;;2.00;100.00
10474;BME280;5284;50.446;7.904;2023-03-14T22:48:09;97951.06;;;1.92;100.00
10474;BME280;5284;50.446;7.904;2023-03-14T22:53:12;97951.50;;;1.84;100.00
10474;BME280;5284;50.446;7.904;2023-03-14T22:58:15;97954.00;;;1.72;100.00
10474;BME280;5284;50.446;7.904;2023-03-14T23:03:19;97963.28;;;1.63;100.00
10474;BME280;5284;50.446;7.904;2023-03-14T23:08:25;97974.50;;;1.51;100.00
10474;BME280;5284;50.446;7.904;2023-03-14T23:13:28;97971.56;;;1.42;100.00
10474;BME280;5284;50.446;7.904;2023-03-14T23:18:33;97968.53;;;1.34;100.00
10474;BME280;5284;50.446;7.904;2023-03-14T23:23:38;97985.41;;;1.30;100.00
10474;BME280;5284;50.446;7.904;2023-03-14T23:28:42;97988.41;;;1.24;100.00
10474;BME280;5284;50.446;7.904;2023-03-14T23:33:46;97988.81;;;1.17;100.00
10474;BME280;5284;50.446;7.904;2023-03-14T23:38:50;98002.38;;;1.09;100.00
10474;BME280;5284;50.446;7.904;2023-03-14T23:43:52;97998.34;;;1.04;100.00
10474;BME280;5284;50.446;7.904;2023-03-14T23:48:56;98005.59;;;0.99;100.00
10474;BME280;5284;50.446;7.904;2023-03-14T23:53:59;98010.25;;;0.94;100.00
10474;BME280;5284;50.446;7.904;2023-03-14T23:59:03;98012.38;;;0.87;100.00
